Bemiss, Georgia
Current Conditions -  °F | °C
As of 11:53 AM on Tuesday 27 Jan 2015 (Local Time) from KVLD Reporting Station
Clear Clear  
Wind Chill: 57°   Ceiling: Unl
Heat Index: 57°   Visibility: 10mi
Dew Point: 37°   Wind: 6mph
Humidity: 47%   Direction: NA
Pressure: 29.97"   Gusts: NA
Location:  30.8853°N, 83.3291°W
Report Text: KVLD 271653Z VRB05KT 10SM CLR 14/03 A2997 RMK AO2 SLP158 T01390028
Loading
Personal Weather Stations






























Interactive Weather Map New forecast layout! Learn more

10-Day Weather Forecast

Advertisements
Track Severe Weather on mobile